createdAt,value
2018-06-10T19:38:15.387Z,308.47
2018-06-10T19:40:46.908Z,246.73
2018-06-10T19:43:16.850Z,163.47
2018-06-10T19:45:45.904Z,112.73
2018-06-10T19:48:14.484Z,72.17
2018-06-10T19:50:43.198Z,54.13
2018-06-10T19:53:11.729Z,71.20
2018-06-10T19:55:40.558Z,63.67
2018-06-10T19:58:09.094Z,56.23
2018-06-10T20:00:37.820Z,45.07
2018-06-10T20:03:06.424Z,31.07
2018-06-10T20:05:35.327Z,26.93
2018-06-10T20:08:06.773Z,21.90
2018-06-10T20:10:35.408Z,16.80
2018-06-10T20:13:04.625Z,14.77
2018-06-10T20:15:32.838Z,12.97
2018-06-10T20:18:01.858Z,12.10
2018-06-10T20:20:30.490Z,10.80
2018-06-10T20:22:59.015Z,10.10
2018-06-10T20:25:27.658Z,9.33
2018-06-10T20:27:56.174Z,8.63
2018-06-10T20:30:24.802Z,8.23
2018-06-10T20:32:53.943Z,8.00
2018-06-10T20:35:22.552Z,7.87
2018-06-10T20:37:56.983Z,7.77
2018-06-10T20:40:26.301Z,7.53
2018-06-10T20:42:54.876Z,7.73
2018-06-10T20:45:23.785Z,8.20
2018-06-10T20:47:52.318Z,8.20
2018-06-10T20:50:20.886Z,7.97
2018-06-10T20:52:49.468Z,8.07
2018-06-10T20:55:18.020Z,8.27
2018-06-10T20:57:46.518Z,8.40
2018-06-10T21:00:15.208Z,8.20
2018-06-10T21:02:43.704Z,7.77
2018-06-10T21:05:12.306Z,7.53
2018-06-10T21:07:40.835Z,7.80
2018-06-10T21:10:09.664Z,8.73
2018-06-10T21:12:37.809Z,8.40
2018-06-10T21:15:06.621Z,7.97
2018-06-10T21:17:34.777Z,7.97
2018-06-10T21:20:03.658Z,7.90
2018-06-10T21:22:32.250Z,7.97
2018-06-10T21:25:01.109Z,7.70
2018-06-10T21:27:29.633Z,7.50
2018-06-10T21:29:58.137Z,8.23
2018-06-10T21:32:26.718Z,8.37
2018-06-10T21:34:55.494Z,7.87
2018-06-10T21:37:23.711Z,8.60
2018-06-10T21:39:52.245Z,8.27
2018-06-10T21:42:20.849Z,8.30
2018-06-10T21:44:49.406Z,8.27
2018-06-10T21:47:17.941Z,8.03
2018-06-10T21:49:46.537Z,8.20
2018-06-10T21:52:15.196Z,8.13
2018-06-10T21:54:44.003Z,8.20
2018-06-10T21:57:12.636Z,8.00
2018-06-10T21:59:42.641Z,7.90
2018-06-10T22:02:11.965Z,8.17
2018-06-10T22:04:40.525Z,8.53
2018-06-10T22:07:09.102Z,8.67
2018-06-10T22:09:37.589Z,8.10
2018-06-10T22:12:06.464Z,7.93
2018-06-10T22:14:35.097Z,8.43
2018-06-10T22:17:03.297Z,8.30
2018-06-10T22:19:31.810Z,8.80
2018-06-10T22:22:00.363Z,7.67
2018-06-10T22:24:28.855Z,8.13
2018-06-10T22:26:57.708Z,8.03
2018-06-10T22:29:26.235Z,8.70
2018-06-10T22:31:54.787Z,8.10
2018-06-10T22:34:23.345Z,7.57
2018-06-10T22:36:51.582Z,8.00
2018-06-10T22:39:20.260Z,7.40
2018-06-10T22:41:48.765Z,7.80
2018-06-10T22:44:17.730Z,7.40
2018-06-10T22:46:46.344Z,7.87
2018-06-10T22:49:14.893Z,7.50
2018-06-10T22:51:43.439Z,7.50
